createdAt,value
2018-09-21T00:00:01.279Z,97624.08
2018-09-21T00:02:28.973Z,97625.59
2018-09-21T00:04:56.652Z,97621.34
2018-09-21T00:07:24.318Z,97618.98
2018-09-21T00:09:51.959Z,97616.64
2018-09-21T00:12:19.928Z,97608.52
2018-09-21T00:14:47.594Z,97615.42
2018-09-21T00:17:15.277Z,97617.10
2018-09-21T00:19:43.013Z,97615.23
2018-09-21T00:22:10.670Z,97607.49
2018-09-21T00:24:38.350Z,97613.54
2018-09-21T00:27:06.145Z,97604.73
2018-09-21T00:29:33.841Z,97607.39
2018-09-21T00:32:01.529Z,97602.38
2018-09-21T00:34:29.226Z,97603.59
2018-09-21T00:36:56.925Z,97601.63
2018-09-21T00:39:24.574Z,97606.72
2018-09-21T00:41:52.279Z,97605.02
2018-09-21T00:44:20.047Z,97600.41
2018-09-21T00:46:47.765Z,97606.91
2018-09-21T00:49:15.527Z,97600.03
2018-09-21T00:51:43.201Z,97601.44
2018-09-21T00:54:11.003Z,97594.66
2018-09-21T00:56:38.773Z,97593.14
2018-09-21T00:59:06.543Z,97592.77
2018-09-21T01:01:34.210Z,97585.41
2018-09-21T01:04:01.931Z,97583.99
2018-09-21T01:06:29.777Z,97585.96
2018-09-21T01:08:57.529Z,97585.69
2018-09-21T01:11:25.229Z,97583.89
2018-09-21T01:13:52.886Z,97576.00
2018-09-21T01:16:20.585Z,97578.90
2018-09-21T01:18:48.277Z,97574.67
2018-09-21T01:21:16.072Z,97573.16
2018-09-21T01:23:43.808Z,97574.86
2018-09-21T01:26:11.636Z,97575.62
2018-09-21T01:28:39.286Z,97574.94
2018-09-21T01:31:06.997Z,97575.43
2018-09-21T01:33:34.697Z,97585.70
2018-09-21T01:36:02.419Z,97574.00
2018-09-21T01:38:30.179Z,97575.25
2018-09-21T01:40:57.834Z,97574.19
2018-09-21T01:43:25.498Z,97565.81
2018-09-21T01:45:53.196Z,97566.00
2018-09-21T01:48:20.867Z,97559.88
2018-09-21T01:50:48.542Z,97557.42
2018-09-21T01:53:16.244Z,97546.13
2018-09-21T01:55:43.908Z,97547.16
2018-09-21T01:58:11.578Z,97542.45
2018-09-21T02:00:39.306Z,97544.38
2018-09-21T02:03:07.142Z,97541.17
2018-09-21T02:05:34.797Z,97540.88
2018-09-21T02:08:02.462Z,97540.80
2018-09-21T02:10:30.172Z,97540.50
2018-09-21T02:12:57.849Z,97542.77
2018-09-21T02:15:25.495Z,97543.22
2018-09-21T02:17:53.305Z,97538.16
2018-09-21T02:20:20.953Z,97538.91
2018-09-21T02:22:48.709Z,97531.75
2018-09-21T02:25:16.375Z,97525.05
2018-09-21T02:27:44.022Z,97526.53
2018-09-21T02:30:11.724Z,97518.82
2018-09-21T02:32:39.410Z,97520.72
2018-09-21T02:35:07.107Z,97519.41
2018-09-21T02:37:34.797Z,97519.09
2018-09-21T02:40:02.533Z,97510.94
2018-09-21T02:42:30.266Z,97514.23
2018-09-21T02:44:57.996Z,97510.76
2018-09-21T02:47:25.684Z,97511.41
2018-09-21T02:49:53.372Z,97506.98
2018-09-21T02:52:21.040Z,97505.37
2018-09-21T02:54:48.730Z,97504.30
2018-09-21T02:57:16.429Z,97497.08
2018-09-21T02:59:44.094Z,97497.25
2018-09-21T03:02:11.818Z,97493.84
2018-09-21T03:04:45.351Z,97491.91
2018-09-21T03:07:12.998Z,97488.58
2018-09-21T03:09:40.685Z,97494.43
2018-09-21T03:12:08.389Z,97488.07
2018-09-21T03:14:36.120Z,97481.70
2018-09-21T03:17:03.790Z,97482.25
2018-09-21T03:19:31.458Z,97481.33
2018-09-21T03:21:59.212Z,97475.88
2018-09-21T03:24:26.879Z,97472.95
2018-09-21T03:26:54.530Z,97475.95
2018-09-21T03:29:22.229Z,97476.51
2018-09-21T03:31:49.885Z,97476.03
2018-09-21T03:34:17.550Z,97471.05
2018-09-21T03:36:45.224Z,97477.13
2018-09-21T03:39:12.929Z,97473.93
2018-09-21T03:41:40.604Z,97476.69
2018-09-21T03:44:08.296Z,97467.30
2018-09-21T03:46:36.065Z,97458.59
2018-09-21T03:49:03.859Z,97461.17
2018-09-21T03:51:31.540Z,97456.15
2018-09-21T03:53:59.190Z,97463.09
2018-09-21T03:56:26.970Z,97457.67
2018-09-21T03:58:54.792Z,97457.08
2018-09-21T04:01:22.509Z,97444.55
2018-09-21T04:03:50.206Z,97449.30
2018-09-21T04:06:17.895Z,97443.90
2018-09-21T04:08:45.603Z,97440.93
2018-09-21T04:11:13.290Z,97444.22
2018-09-21T04:13:40.970Z,97439.06
2018-09-21T04:16:09.214Z,97429.02
2018-09-21T04:18:37.142Z,97430.54
2018-09-21T04:21:05.322Z,97425.70
2018-09-21T04:23:33.165Z,97433.34
2018-09-21T04:26:01.037Z,97423.20
2018-09-21T04:28:28.927Z,97423.28
2018-09-21T04:30:56.773Z,97419.72
2018-09-21T04:33:24.940Z,97415.45
2018-09-21T04:35:52.948Z,97417.56
2018-09-21T04:38:20.886Z,97410.42
2018-09-21T04:40:48.834Z,97403.67
2018-09-21T04:43:16.655Z,97403.23
2018-09-21T04:45:44.591Z,97403.44
2018-09-21T04:48:12.475Z,97397.72
2018-09-21T04:50:40.490Z,97391.64
2018-09-21T04:53:08.618Z,97392.56
2018-09-21T04:55:36.306Z,97389.48
2018-09-21T04:58:04.077Z,97385.98
2018-09-21T05:00:31.797Z,97389.95
2018-09-21T05:02:59.590Z,97392.42
2018-09-21T05:05:27.385Z,97391.02
2018-09-21T05:07:55.532Z,97391.19
2018-09-21T05:10:23.494Z,97389.45
2018-09-21T05:12:51.288Z,97387.23
2018-09-21T05:15:19.371Z,97383.14
2018-09-21T05:17:47.340Z,97389.38
2018-09-21T05:20:15.274Z,97387.89
2018-09-21T05:22:43.286Z,97376.19
2018-09-21T05:25:11.440Z,97383.16
2018-09-21T05:27:39.341Z,97374.06
2018-09-21T05:30:07.485Z,97376.39
2018-09-21T05:32:35.458Z,97375.73
2018-09-21T05:35:03.712Z,97372.66
2018-09-21T05:37:31.798Z,97374.09
2018-09-21T05:39:59.709Z,97372.48
2018-09-21T05:42:27.419Z,97373.52
2018-09-21T05:44:55.573Z,97369.88
2018-09-21T05:47:23.385Z,97369.22
2018-09-21T05:49:51.235Z,97369.40
2018-09-21T05:52:19.144Z,97366.12
2018-09-21T05:54:47.077Z,97364.13
2018-09-21T05:57:15.189Z,97368.95
2018-09-21T05:59:42.919Z,97368.45
2018-09-21T06:02:10.800Z,97370.11
2018-09-21T06:04:38.489Z,97371.66
2018-09-21T06:07:06.260Z,97369.38
2018-09-21T06:09:33.982Z,97368.22
2018-09-21T06:12:01.729Z,97368.33
2018-09-21T06:14:29.425Z,97368.41
2018-09-21T06:16:57.228Z,97362.66
2018-09-21T06:19:25.069Z,97368.76
2018-09-21T06:21:52.841Z,97362.26
2018-09-21T06:24:20.590Z,97361.86
2018-09-21T06:26:48.400Z,97356.14
2018-09-21T06:29:16.169Z,97353.50
2018-09-21T06:31:43.893Z,97349.55
2018-09-21T06:34:11.716Z,97350.77
2018-09-21T06:36:39.432Z,97352.20
2018-09-21T06:39:09.525Z,97348.30
2018-09-21T06:41:37.636Z,97363.58
2018-09-21T06:44:05.718Z,97357.56
2018-09-21T06:46:33.538Z,97346.11
2018-09-21T06:49:01.261Z,97349.15
2018-09-21T06:51:29.073Z,97332.84
2018-09-21T06:53:56.865Z,97327.67
2018-09-21T06:56:24.543Z,97333.99
2018-09-21T06:58:52.206Z,97325.34
2018-09-21T07:01:19.969Z,97330.49
2018-09-21T07:03:47.734Z,97334.34
2018-09-21T07:06:15.427Z,97334.81
2018-09-21T07:08:43.242Z,97337.99
2018-09-21T07:11:10.997Z,97321.55
2018-09-21T07:13:38.738Z,97320.62
2018-09-21T07:16:06.526Z,97320.59
2018-09-21T07:18:34.305Z,97316.09
2018-09-21T07:21:02.051Z,97316.23
2018-09-21T07:23:29.867Z,97312.70
2018-09-21T07:25:57.633Z,97303.28
2018-09-21T07:28:25.355Z,97310.97
2018-09-21T07:30:53.159Z,97310.83
2018-09-21T07:33:20.860Z,97314.80
2018-09-21T07:35:48.606Z,97323.39
2018-09-21T07:38:16.349Z,97319.20
2018-09-21T07:40:44.106Z,97312.66
2018-09-21T07:43:11.851Z,97309.31
2018-09-21T07:45:39.636Z,97308.34
2018-09-21T07:48:07.432Z,97302.49
2018-09-21T07:50:35.199Z,97308.41
2018-09-21T07:53:02.961Z,97292.99
2018-09-21T07:55:30.793Z,97300.36
2018-09-21T07:57:58.567Z,97296.20
2018-09-21T08:00:26.338Z,97287.17
2018-09-21T08:02:54.263Z,97284.53
2018-09-21T08:05:37.817Z,97287.53
2018-09-21T08:08:06.307Z,97286.66
2018-09-21T08:10:34.414Z,97280.23
2018-09-21T08:13:02.443Z,97291.52
2018-09-21T08:15:30.786Z,97272.30
2018-09-21T08:17:58.543Z,97272.70
2018-09-21T08:20:26.720Z,97262.12
2018-09-21T08:22:54.509Z,97267.39
2018-09-21T08:25:22.226Z,97267.34
2018-09-21T08:27:49.961Z,97259.50
2018-09-21T08:30:17.817Z,97258.32
2018-09-21T08:32:45.581Z,97261.16
2018-09-21T08:35:13.358Z,97259.81
2018-09-21T08:37:41.315Z,97263.86
2018-09-21T08:40:09.787Z,97260.12
2018-09-21T08:42:37.725Z,97260.38
2018-09-21T08:45:06.630Z,97264.00
2018-09-21T08:47:34.457Z,97241.29
2018-09-21T08:50:02.258Z,97248.83
2018-09-21T08:52:30.022Z,97253.49
2018-09-21T08:54:57.774Z,97248.49
2018-09-21T08:57:25.504Z,97232.06
2018-09-21T08:59:53.190Z,97223.06
2018-09-21T09:02:20.968Z,97229.77
2018-09-21T09:04:48.689Z,97207.02
2018-09-21T09:07:16.545Z,97200.66
2018-09-21T09:09:44.246Z,97212.17
2018-09-21T09:12:12.101Z,97201.45
2018-09-21T09:14:39.814Z,97197.88
2018-09-21T09:17:07.513Z,97199.07
2018-09-21T09:19:35.323Z,97189.77
2018-09-21T09:22:03.096Z,97187.48
2018-09-21T09:24:30.938Z,97182.78
2018-09-21T09:26:58.587Z,97176.88
2018-09-21T09:29:26.280Z,97170.28
2018-09-21T09:31:54.112Z,97167.14
2018-09-21T09:34:21.920Z,97164.95
2018-09-21T09:36:49.668Z,97165.23
2018-09-21T09:39:17.362Z,97176.61
2018-09-21T09:41:45.124Z,97149.52
2018-09-21T09:44:13.249Z,97150.37
2018-09-21T09:46:41.008Z,97142.55
2018-09-21T09:49:08.775Z,97163.49
2018-09-21T09:51:36.473Z,97164.69
2018-09-21T09:54:04.265Z,97166.64
2018-09-21T09:56:32.071Z,97164.41
2018-09-21T09:58:59.860Z,97153.53
2018-09-21T10:01:27.536Z,97161.06
2018-09-21T10:03:55.411Z,97174.58
2018-09-21T10:06:23.119Z,97155.21
2018-09-21T10:08:50.944Z,97148.96
2018-09-21T10:11:18.651Z,97166.52
2018-09-21T10:13:46.409Z,97147.61
2018-09-21T10:16:14.194Z,97138.98
2018-09-21T10:18:41.990Z,97132.58
2018-09-21T10:21:09.760Z,97131.52
2018-09-21T10:23:37.501Z,97139.28
2018-09-21T10:26:05.254Z,97134.45
2018-09-21T10:28:33.384Z,97132.86
2018-09-21T10:31:00.861Z,97134.75
2018-09-21T10:33:28.674Z,97119.86
2018-09-21T10:35:56.496Z,97111.43
2018-09-21T10:38:24.171Z,97105.19
2018-09-21T10:40:51.870Z,97116.88
2018-09-21T10:43:19.676Z,97120.59
2018-09-21T10:45:47.405Z,97116.44
2018-09-21T10:48:15.170Z,97106.23
2018-09-21T10:50:43.178Z,97113.44
2018-09-21T10:53:10.959Z,97103.11
2018-09-21T10:55:38.717Z,97107.38
2018-09-21T10:58:06.444Z,97096.33
2018-09-21T11:00:34.299Z,97120.08
2018-09-21T11:03:02.021Z,97099.02
2018-09-21T11:05:29.819Z,97079.59
2018-09-21T11:07:57.521Z,97078.31
2018-09-21T11:10:25.224Z,97098.32
2018-09-21T11:12:53.006Z,97066.26
2018-09-21T11:15:20.719Z,97074.39
2018-09-21T11:17:48.507Z,97074.13
2018-09-21T11:20:16.240Z,97073.04
2018-09-21T11:22:44.028Z,97065.20
2018-09-21T11:25:11.823Z,97062.23
2018-09-21T11:27:39.588Z,97066.16
2018-09-21T11:30:07.379Z,97057.61
2018-09-21T11:32:35.189Z,97052.59
2018-09-21T11:35:02.970Z,97047.89
2018-09-21T11:37:30.886Z,97051.14
2018-09-21T11:39:58.642Z,97058.03
2018-09-21T11:42:32.268Z,97044.28
2018-09-21T11:45:00.156Z,97042.14
2018-09-21T11:47:28.065Z,97042.70
2018-09-21T11:49:56.023Z,97030.20
2018-09-21T11:52:24.060Z,97034.34
2018-09-21T11:54:51.932Z,97017.02
2018-09-21T11:57:19.965Z,97010.02
2018-09-21T11:59:48.186Z,97015.66
2018-09-21T12:02:16.257Z,97023.38
2018-09-21T12:04:44.367Z,97021.66
2018-09-21T12:07:12.208Z,97015.94
2018-09-21T12:09:40.200Z,97009.14
2018-09-21T12:12:08.202Z,97028.03
2018-09-21T12:14:36.127Z,97012.06
2018-09-21T12:17:04.032Z,96999.62
2018-09-21T12:19:32.177Z,97005.06
2018-09-21T12:22:00.374Z,96990.52
2018-09-21T12:24:28.535Z,97005.25
2018-09-21T12:26:56.244Z,97006.48
2018-09-21T12:29:23.949Z,96994.33
2018-09-21T12:31:51.626Z,96976.11
2018-09-21T12:34:19.488Z,96966.55
2018-09-21T12:36:47.382Z,96973.72
2018-09-21T12:39:15.208Z,96968.80
2018-09-21T12:41:43.413Z,96959.46
2018-09-21T12:44:12.679Z,96970.19
2018-09-21T12:46:40.382Z,96961.86
2018-09-21T12:49:08.215Z,96970.67
2018-09-21T12:51:36.066Z,96972.12
2018-09-21T12:54:03.908Z,96964.33
2018-09-21T12:56:31.838Z,96965.25
2018-09-21T12:58:59.546Z,96969.72
2018-09-21T13:01:27.301Z,96954.97
2018-09-21T13:03:55.054Z,96971.08
2018-09-21T13:06:22.897Z,96967.85
2018-09-21T13:08:50.636Z,96952.19
2018-09-21T13:11:18.431Z,96945.31
2018-09-21T13:13:46.389Z,96950.50
2018-09-21T13:16:14.098Z,96941.89
2018-09-21T13:18:41.917Z,96943.24
2018-09-21T13:21:09.672Z,96942.08
2018-09-21T13:23:37.446Z,96925.95
2018-09-21T13:26:05.195Z,96927.22
2018-09-21T13:28:32.996Z,96917.42
2018-09-21T13:31:00.729Z,96920.55
2018-09-21T13:33:28.479Z,96930.19
2018-09-21T13:35:56.414Z,96922.72
2018-09-21T13:38:24.425Z,96927.56
2018-09-21T13:40:52.725Z,96921.61
2018-09-21T13:43:20.849Z,96926.03
2018-09-21T13:45:48.693Z,96921.18
2018-09-21T13:48:16.637Z,96918.02
2018-09-21T13:50:44.919Z,96909.62
2018-09-21T13:53:12.905Z,96915.99
2018-09-21T13:55:40.941Z,96919.56
2018-09-21T13:58:09.089Z,96912.04
2018-09-21T14:00:37.008Z,96905.10
2018-09-21T14:03:05.017Z,96920.52
2018-09-21T14:05:33.335Z,96903.45
2018-09-21T14:08:01.312Z,96895.73
2018-09-21T14:10:29.279Z,96885.88
2018-09-21T14:12:57.001Z,96894.44
2018-09-21T14:15:24.920Z,96899.86
2018-09-21T14:17:52.697Z,96912.28
2018-09-21T14:20:20.598Z,96902.18
2018-09-21T14:22:48.681Z,96880.70
2018-09-21T14:25:16.418Z,96884.05
2018-09-21T14:27:44.272Z,96892.45
2018-09-21T14:30:11.955Z,96874.16
2018-09-21T14:32:39.678Z,96885.55
2018-09-21T14:35:07.381Z,96873.33
2018-09-21T14:37:35.180Z,96878.34
2018-09-21T14:40:02.897Z,96883.97
2018-09-21T14:42:30.785Z,96873.38
2018-09-21T14:44:58.505Z,96875.60
2018-09-21T14:47:26.198Z,96860.67
2018-09-21T14:49:53.862Z,96856.41
2018-09-21T14:52:21.617Z,96868.63
2018-09-21T14:54:49.299Z,96871.89
2018-09-21T14:57:17.267Z,96875.08
2018-09-21T14:59:45.042Z,96883.62
2018-09-21T15:02:12.760Z,96898.90
2018-09-21T15:04:40.513Z,96903.36
2018-09-21T15:07:09.393Z,96930.05
2018-09-21T15:09:37.927Z,96919.14
2018-09-21T15:12:05.734Z,96928.94
2018-09-21T15:14:33.455Z,96920.16
2018-09-21T15:17:01.184Z,96938.02
2018-09-21T15:19:28.849Z,96938.69
2018-09-21T15:21:56.560Z,96932.19
2018-09-21T15:24:24.421Z,96930.17
2018-09-21T15:26:52.246Z,96940.55
2018-09-21T15:29:19.946Z,96925.17
2018-09-21T15:31:47.856Z,96923.55
2018-09-21T15:34:15.939Z,96926.09
2018-09-21T15:36:43.712Z,96919.90
2018-09-21T15:39:12.221Z,96926.97
2018-09-21T15:41:40.524Z,96930.81
2018-09-21T15:44:08.396Z,96924.70
2018-09-21T15:46:36.513Z,96924.02
2018-09-21T15:49:04.948Z,96924.62
2018-09-21T15:51:32.744Z,96926.18
2018-09-21T15:54:00.422Z,96941.48
2018-09-21T15:56:28.083Z,96916.39
2018-09-21T15:58:55.817Z,96910.70
2018-09-21T16:01:23.566Z,96914.95
2018-09-21T16:03:51.320Z,96922.56
2018-09-21T16:06:19.220Z,96909.64
2018-09-21T16:08:46.961Z,96920.67
2018-09-21T16:11:14.830Z,96926.64
2018-09-21T16:13:42.752Z,96962.91
2018-09-21T16:16:10.542Z,96934.59
2018-09-21T16:18:38.300Z,96956.39
2018-09-21T16:21:06.082Z,96983.28
2018-09-21T16:23:33.799Z,97005.03
2018-09-21T16:26:01.508Z,97015.17
2018-09-21T16:28:30.365Z,97052.45
2018-09-21T16:30:58.072Z,97054.72
2018-09-21T16:33:25.710Z,97090.16
2018-09-21T16:35:53.555Z,97116.47
2018-09-21T16:38:21.269Z,97142.51
2018-09-21T16:40:48.942Z,97157.53
2018-09-21T16:43:16.681Z,97159.22
2018-09-21T16:45:44.369Z,97206.44
2018-09-21T16:48:12.808Z,97184.61
2018-09-21T16:50:40.544Z,97189.08
2018-09-21T16:53:08.254Z,97183.78
2018-09-21T16:55:35.964Z,97177.53
2018-09-21T16:58:03.618Z,97195.23
2018-09-21T17:00:31.361Z,97206.97
2018-09-21T17:02:59.036Z,97221.91
2018-09-21T17:05:26.778Z,97236.89
2018-09-21T17:07:54.445Z,97257.33
2018-09-21T17:10:22.148Z,97267.13
2018-09-21T17:12:49.829Z,97278.14
2018-09-21T17:15:17.485Z,97294.86
2018-09-21T17:17:45.145Z,97311.45
2018-09-21T17:20:12.902Z,97306.59
2018-09-21T17:22:40.536Z,97324.78
2018-09-21T17:25:08.713Z,97320.36
2018-09-21T17:27:36.408Z,97328.36
2018-09-21T17:30:04.263Z,97326.23
2018-09-21T17:32:31.938Z,97332.58
2018-09-21T17:34:59.623Z,97339.39
2018-09-21T17:37:27.326Z,97352.55
2018-09-21T17:39:55.068Z,97361.24
2018-09-21T17:42:22.782Z,97368.55
2018-09-21T17:44:51.107Z,97361.53
2018-09-21T17:47:19.138Z,97362.69
2018-09-21T17:49:46.799Z,97369.78
2018-09-21T17:52:14.786Z,97393.02
2018-09-21T17:54:42.724Z,97405.86
2018-09-21T17:57:10.517Z,97404.39
2018-09-21T17:59:38.378Z,97408.24
2018-09-21T18:02:06.259Z,97403.06
2018-09-21T18:04:34.141Z,97402.94
2018-09-21T18:07:01.870Z,97428.83
2018-09-21T18:09:29.785Z,97440.92
2018-09-21T18:11:57.468Z,97430.57
2018-09-21T18:14:25.265Z,97411.55
2018-09-21T18:16:52.931Z,97413.42
2018-09-21T18:19:20.602Z,97421.22
2018-09-21T18:21:48.354Z,97425.87
2018-09-21T18:24:16.103Z,97430.47
2018-09-21T18:26:43.797Z,97436.58
2018-09-21T18:29:11.517Z,97444.19
2018-09-21T18:31:39.286Z,97454.70
2018-09-21T18:34:07.054Z,97459.27
2018-09-21T18:36:34.819Z,97478.38
2018-09-21T18:39:02.779Z,97489.86
2018-09-21T18:41:30.537Z,97484.85
2018-09-21T18:43:58.343Z,97475.19
2018-09-21T18:46:26.610Z,97481.97
2018-09-21T18:48:54.783Z,97464.94
2018-09-21T18:51:23.152Z,97473.77
2018-09-21T18:53:51.130Z,97487.91
2018-09-21T18:56:18.919Z,97492.31
2018-09-21T18:58:46.749Z,97480.25
2018-09-21T19:01:14.461Z,97492.38
2018-09-21T19:03:42.784Z,97511.70
2018-09-21T19:06:10.461Z,97494.18
2018-09-21T19:08:38.158Z,97498.33
2018-09-21T19:11:05.948Z,97521.92
2018-09-21T19:13:33.923Z,97542.52
2018-09-21T19:16:01.722Z,97533.59
2018-09-21T19:18:29.488Z,97542.72
2018-09-21T19:20:57.240Z,97546.61
2018-09-21T19:23:24.957Z,97525.25
2018-09-21T19:25:52.946Z,97534.86
2018-09-21T19:28:21.158Z,97541.84
2018-09-21T19:30:48.941Z,97543.46
2018-09-21T19:33:17.865Z,97553.87
2018-09-21T19:35:45.757Z,97544.55
2018-09-21T19:38:13.869Z,97548.39
2018-09-21T19:40:42.288Z,97558.34
2018-09-21T19:43:10.195Z,97569.41
2018-09-21T19:45:37.924Z,97564.33
2018-09-21T19:48:05.863Z,97570.53
2018-09-21T19:50:33.629Z,97586.12
2018-09-21T19:53:01.498Z,97577.42
2018-09-21T19:55:29.309Z,97573.13
2018-09-21T19:57:57.042Z,97567.14
2018-09-21T20:00:24.920Z,97568.14
2018-09-21T20:02:52.784Z,97571.21
2018-09-21T20:05:20.574Z,97574.86
2018-09-21T20:07:48.579Z,97581.61
2018-09-21T20:10:16.420Z,97590.77
2018-09-21T20:12:44.282Z,97598.48
2018-09-21T20:15:12.240Z,97605.56
2018-09-21T20:17:39.905Z,97612.94
2018-09-21T20:20:07.637Z,97612.47
2018-09-21T20:22:35.337Z,97612.22
2018-09-21T20:25:03.482Z,97615.55
2018-09-21T20:27:31.176Z,97618.18
2018-09-21T20:30:04.447Z,97621.59
2018-09-21T20:32:37.926Z,97624.52
2018-09-21T20:35:06.031Z,97635.92
2018-09-21T20:37:34.030Z,97640.75
2018-09-21T20:40:01.838Z,97644.08
2018-09-21T20:42:29.574Z,97646.72
2018-09-21T20:44:57.359Z,97647.00
2018-09-21T20:47:25.147Z,97665.30
2018-09-21T20:49:52.878Z,97663.52
2018-09-21T20:52:20.936Z,97670.48
2018-09-21T20:54:48.786Z,97675.31
2018-09-21T20:57:16.572Z,97675.82
2018-09-21T20:59:44.302Z,97683.70
2018-09-21T21:02:12.065Z,97686.73
2018-09-21T21:04:40.115Z,97694.60
2018-09-21T21:07:07.903Z,97693.21
2018-09-21T21:09:35.648Z,97693.21
2018-09-21T21:12:03.544Z,97703.74
2018-09-21T21:14:31.260Z,97698.93
2018-09-21T21:16:58.972Z,97694.75
2018-09-21T21:19:26.791Z,97707.53
2018-09-21T21:21:54.797Z,97710.32
2018-09-21T21:24:22.878Z,97717.56
2018-09-21T21:26:50.691Z,97732.40
2018-09-21T21:29:18.393Z,97719.97
2018-09-21T21:31:46.078Z,97726.20
2018-09-21T21:34:13.972Z,97731.16
2018-09-21T21:36:41.704Z,97739.91
2018-09-21T21:39:09.942Z,97732.54
2018-09-21T21:41:37.834Z,97745.73
2018-09-21T21:44:05.670Z,97745.08
2018-09-21T21:46:33.423Z,97759.03
2018-09-21T21:49:02.304Z,97768.67
2018-09-21T21:51:30.115Z,97773.11
2018-09-21T21:53:57.856Z,97768.35
2018-09-21T21:56:25.600Z,97768.26
2018-09-21T21:58:53.342Z,97774.65
2018-09-21T22:01:26.560Z,97787.89
2018-09-21T22:03:54.584Z,97793.44
2018-09-21T22:06:22.355Z,97794.41
2018-09-21T22:08:50.110Z,97793.98
2018-09-21T22:11:23.549Z,97793.58
2018-09-21T22:13:56.692Z,97795.22
2018-09-21T22:16:24.495Z,97805.06
2018-09-21T22:18:52.219Z,97811.59
2018-09-21T22:21:19.973Z,97804.23
2018-09-21T22:23:47.684Z,97801.28
2018-09-21T22:26:15.520Z,97812.81
2018-09-21T22:28:43.258Z,97805.06
2018-09-21T22:31:11.016Z,97805.42
2018-09-21T22:33:38.851Z,97801.62
2018-09-21T22:36:06.931Z,97813.67
2018-09-21T22:38:34.689Z,97817.98
2018-09-21T22:41:02.464Z,97813.77
2018-09-21T22:43:30.282Z,97822.03
2018-09-21T22:45:58.030Z,97824.13
2018-09-21T22:48:25.871Z,97827.27
2018-09-21T22:50:53.856Z,97826.61
2018-09-21T22:53:21.603Z,97839.11
2018-09-21T22:55:49.437Z,97840.78
2018-09-21T22:58:17.252Z,97836.30
2018-09-21T23:00:45.005Z,97835.62
2018-09-21T23:03:12.958Z,97841.65
2018-09-21T23:05:40.637Z,97845.56
2018-09-21T23:08:08.472Z,97848.51
2018-09-21T23:10:36.247Z,97849.45
2018-09-21T23:13:03.973Z,97850.57
2018-09-21T23:15:31.736Z,97847.39
2018-09-21T23:17:59.574Z,97847.02
2018-09-21T23:20:27.257Z,97845.28
2018-09-21T23:22:55.126Z,97852.73
2018-09-21T23:25:22.964Z,97854.72
2018-09-21T23:27:50.676Z,97860.52
2018-09-21T23:30:18.425Z,97855.53
2018-09-21T23:32:46.349Z,97849.34
2018-09-21T23:35:14.198Z,97865.14
2018-09-21T23:37:41.961Z,97858.30
2018-09-21T23:40:09.781Z,97863.00
2018-09-21T23:42:37.474Z,97871.08
2018-09-21T23:45:05.594Z,97862.02
2018-09-21T23:47:33.550Z,97868.19
2018-09-21T23:50:01.319Z,97863.24
2018-09-21T23:52:29.027Z,97864.49
2018-09-21T23:54:56.799Z,97862.57
2018-09-21T23:57:24.520Z,97872.63
2018-09-21T23:59:52.284Z,97874.58
